createdAt,value
2019-01-17T00:01:34.738Z,197.77
2019-01-17T00:05:16.241Z,203.97
2019-01-17T00:08:39.322Z,195.63
2019-01-17T00:11:56.840Z,172.67
2019-01-17T00:15:18.869Z,169.33
2019-01-17T00:18:45.205Z,175.20
2019-01-17T00:22:07.317Z,172.40
2019-01-17T00:25:45.868Z,167.90
2019-01-17T00:28:56.708Z,171.33
2019-01-17T00:32:18.736Z,172.33
2019-01-17T00:35:44.654Z,153.17
2019-01-17T00:39:07.768Z,160.30
2019-01-17T00:42:20.537Z,169.30
2019-01-17T00:45:43.654Z,177.17
2019-01-17T00:49:09.644Z,180.50
2019-01-17T00:52:31.850Z,184.27
2019-01-17T00:56:07.040Z,169.53
2019-01-17T00:59:26.185Z,169.53
2019-01-17T01:02:49.276Z,180.80
2019-01-17T01:06:12.858Z,197.50
2019-01-17T01:09:39.191Z,178.80
2019-01-17T01:12:49.503Z,180.03
2019-01-17T01:16:17.403Z,169.47
2019-01-17T01:19:34.312Z,179.07
2019-01-17T01:23:03.412Z,178.10
2019-01-17T01:26:25.488Z,173.53
2019-01-17T01:30:04.005Z,161.30
2019-01-17T01:33:27.324Z,160.70
2019-01-17T01:36:59.425Z,152.60
2019-01-17T01:40:28.683Z,153.10
2019-01-17T01:43:57.685Z,140.30
2019-01-17T01:47:20.111Z,148.97
2019-01-17T01:50:40.414Z,146.63
2019-01-17T01:53:44.579Z,146.50
2019-01-17T01:56:48.720Z,160.10
2019-01-17T01:59:52.820Z,138.60
2019-01-17T02:02:57.028Z,145.10
2019-01-17T02:06:01.363Z,145.10
2019-01-17T02:09:07.559Z,140.77
2019-01-17T02:12:11.728Z,144.57
2019-01-17T02:15:15.873Z,144.30
2019-01-17T02:18:20.084Z,141.57
2019-01-17T02:21:24.239Z,135.50
2019-01-17T02:24:28.585Z,133.50
2019-01-17T02:27:32.905Z,126.87
2019-01-17T02:30:36.989Z,130.67
2019-01-17T02:33:41.180Z,126.73
2019-01-17T02:36:45.271Z,122.93
2019-01-17T02:39:49.459Z,125.23
2019-01-17T02:42:53.557Z,130.87
2019-01-17T02:45:57.738Z,127.03
2019-01-17T02:49:01.833Z,129.00
2019-01-17T02:52:05.884Z,127.97
2019-01-17T02:55:10.324Z,121.30
2019-01-17T02:58:14.521Z,121.33
2019-01-17T03:01:20.191Z,121.37
2019-01-17T03:04:24.350Z,130.53
2019-01-17T03:07:28.507Z,115.40
2019-01-17T03:10:32.627Z,118.13
2019-01-17T03:13:36.733Z,122.90
2019-01-17T03:16:40.785Z,124.77
2019-01-17T03:19:44.884Z,116.70
2019-01-17T03:22:49.005Z,125.60
2019-01-17T03:25:53.085Z,118.33
2019-01-17T03:28:57.285Z,117.70
2019-01-17T03:32:01.465Z,118.10
2019-01-17T03:35:05.923Z,111.63
2019-01-17T03:38:10.079Z,112.93
2019-01-17T03:41:14.136Z,118.43
2019-01-17T03:44:18.292Z,114.63
2019-01-17T03:47:22.494Z,113.43
2019-01-17T03:50:26.657Z,121.13
2019-01-17T03:53:30.853Z,111.33
2019-01-17T03:56:35.021Z,116.17
2019-01-17T03:59:39.153Z,109.37
2019-01-17T04:02:43.444Z,111.47
2019-01-17T04:05:47.650Z,105.23
2019-01-17T04:08:51.820Z,112.83
2019-01-17T04:11:55.947Z,110.47
2019-01-17T04:15:00.225Z,108.27
2019-01-17T04:18:04.409Z,108.67
2019-01-17T04:21:08.500Z,109.27
2019-01-17T04:24:12.615Z,102.67
2019-01-17T04:27:16.701Z,105.53
2019-01-17T04:30:20.838Z,105.60
2019-01-17T04:33:25.031Z,104.03
2019-01-17T04:36:29.148Z,98.73
2019-01-17T04:39:33.232Z,99.40
2019-01-17T04:42:37.431Z,98.33
2019-01-17T04:45:41.588Z,98.97
2019-01-17T04:48:45.700Z,97.67
2019-01-17T04:51:49.817Z,99.57
2019-01-17T04:54:54.020Z,88.27
2019-01-17T04:57:58.099Z,88.83
2019-01-17T05:01:02.218Z,93.73
2019-01-17T05:04:06.308Z,86.27
2019-01-17T05:07:10.485Z,95.47
2019-01-17T05:10:15.018Z,98.60
2019-01-17T05:13:19.202Z,86.53
2019-01-17T05:16:23.371Z,89.67
2019-01-17T05:19:27.552Z,87.07
2019-01-17T05:22:31.954Z,86.07
2019-01-17T05:25:36.139Z,91.90
2019-01-17T05:28:40.306Z,85.57
2019-01-17T05:31:44.543Z,85.97
2019-01-17T05:34:48.691Z,86.83
2019-01-17T05:37:52.879Z,86.80
2019-01-17T05:40:57.229Z,73.83
2019-01-17T05:44:01.448Z,79.77
2019-01-17T05:47:05.616Z,71.27
2019-01-17T05:50:11.384Z,81.47
2019-01-17T05:53:15.480Z,83.43
2019-01-17T05:56:19.604Z,84.30
2019-01-17T05:59:23.725Z,79.40
2019-01-17T06:02:27.848Z,79.90
2019-01-17T06:05:32.012Z,81.17
2019-01-17T06:08:36.197Z,77.80
2019-01-17T06:11:40.325Z,80.10
2019-01-17T06:14:44.521Z,84.40
2019-01-17T06:17:48.558Z,82.87
2019-01-17T06:20:52.692Z,87.93
2019-01-17T06:23:56.807Z,82.20
2019-01-17T06:27:01.158Z,90.93
2019-01-17T06:30:07.526Z,97.30
2019-01-17T06:33:11.679Z,87.00
2019-01-17T06:36:15.852Z,89.87
2019-01-17T06:39:20.088Z,88.57
2019-01-17T06:42:24.169Z,90.00
2019-01-17T06:45:28.304Z,90.93
2019-01-17T06:48:32.487Z,90.00
2019-01-17T06:51:36.709Z,85.13
2019-01-17T06:54:40.886Z,87.40
2019-01-17T06:57:45.038Z,91.77
2019-01-17T07:00:49.196Z,92.03
2019-01-17T07:03:53.436Z,87.97
2019-01-17T07:06:57.516Z,83.60
2019-01-17T07:10:01.724Z,82.97
2019-01-17T07:13:05.887Z,85.87
2019-01-17T07:16:10.032Z,81.27
2019-01-17T07:19:14.197Z,75.80
2019-01-17T07:22:18.676Z,87.73
2019-01-17T07:25:22.701Z,80.40
2019-01-17T07:28:26.903Z,84.00
2019-01-17T07:31:31.019Z,80.43
2019-01-17T07:34:35.180Z,84.63
2019-01-17T07:37:39.357Z,78.93
2019-01-17T07:40:43.473Z,83.63
2019-01-17T07:43:47.573Z,75.30
2019-01-17T07:46:51.706Z,85.10
2019-01-17T07:49:55.864Z,86.00
2019-01-17T07:53:00.000Z,87.30
2019-01-17T07:56:04.174Z,91.83
2019-01-17T07:59:08.428Z,91.80
2019-01-17T08:02:12.509Z,83.60
2019-01-17T08:05:16.632Z,94.13
2019-01-17T08:08:20.732Z,104.53
2019-01-17T08:11:24.848Z,95.43
2019-01-17T08:14:28.950Z,98.70
2019-01-17T08:17:33.159Z,97.43
2019-01-17T08:20:37.268Z,104.60
2019-01-17T08:23:41.502Z,103.00
2019-01-17T08:26:45.705Z,103.17
2019-01-17T08:29:49.853Z,99.33
2019-01-17T08:32:54.038Z,109.30
2019-01-17T08:35:58.343Z,105.23
2019-01-17T08:39:02.644Z,101.93
2019-01-17T08:42:06.812Z,118.43
2019-01-17T08:45:10.903Z,112.97
2019-01-17T08:48:14.613Z,110.57
2019-01-17T08:51:18.385Z,118.73
2019-01-17T08:54:22.152Z,115.87
2019-01-17T08:57:25.827Z,124.23
2019-01-17T09:00:29.522Z,116.13
2019-01-17T09:03:33.186Z,114.03
2019-01-17T09:06:36.973Z,118.87
2019-01-17T09:09:40.741Z,119.23
2019-01-17T09:12:44.437Z,118.37
2019-01-17T09:15:48.127Z,134.87
2019-01-17T09:18:51.836Z,123.63
2019-01-17T09:21:55.543Z,129.33
2019-01-17T09:24:59.270Z,135.43
2019-01-17T09:28:02.983Z,126.93
2019-01-17T09:31:06.673Z,129.10
2019-01-17T09:34:10.545Z,131.80
2019-01-17T09:37:14.250Z,127.03
2019-01-17T09:40:19.505Z,132.20
2019-01-17T09:43:23.278Z,130.00
2019-01-17T09:46:26.949Z,125.50
2019-01-17T09:49:30.643Z,122.07
2019-01-17T09:52:34.328Z,126.40
2019-01-17T09:55:38.607Z,118.63
2019-01-17T09:58:42.721Z,116.40
2019-01-17T10:01:46.926Z,115.40
2019-01-17T10:04:51.108Z,110.80
2019-01-17T10:07:55.232Z,104.80
2019-01-17T10:10:59.412Z,97.50
2019-01-17T10:14:03.629Z,85.93
2019-01-17T10:17:39.544Z,69.90
2019-01-17T10:21:21.739Z,70.63
2019-01-17T10:24:52.715Z,53.50
2019-01-17T10:28:21.225Z,46.47
2019-01-17T10:32:08.360Z,39.23
2019-01-17T10:35:29.280Z,34.30
2019-01-17T10:38:48.168Z,30.83
2019-01-17T10:42:43.114Z,29.93
2019-01-17T10:46:36.711Z,27.77
2019-01-17T10:50:11.056Z,21.73
2019-01-17T10:53:40.910Z,24.77
2019-01-17T10:57:07.665Z,20.83
2019-01-17T11:00:37.918Z,25.63
2019-01-17T11:04:17.252Z,18.83
2019-01-17T11:08:05.709Z,22.90
2019-01-17T11:11:43.729Z,17.60
2019-01-17T11:15:01.599Z,13.50
2019-01-17T11:18:58.987Z,14.30
2019-01-17T11:22:59.670Z,16.13
2019-01-17T11:26:59.300Z,13.33
2019-01-17T11:30:47.352Z,20.67
2019-01-17T11:34:26.428Z,12.60
2019-01-17T11:38:32.781Z,11.90
2019-01-17T11:42:14.547Z,13.20
2019-01-17T11:46:06.055Z,11.10
2019-01-17T11:49:40.560Z,9.77
2019-01-17T11:53:24.849Z,12.20
2019-01-17T11:57:25.519Z,13.63
2019-01-17T12:01:30.744Z,10.67
2019-01-17T12:04:34.605Z,13.20
2019-01-17T12:07:38.764Z,11.80
2019-01-17T12:10:42.888Z,12.37
2019-01-17T12:13:46.993Z,13.53
2019-01-17T12:16:51.118Z,10.83
2019-01-17T12:19:55.296Z,9.53
2019-01-17T12:22:59.499Z,13.23
2019-01-17T12:26:03.700Z,14.67
2019-01-17T12:29:07.846Z,13.07
2019-01-17T12:32:12.017Z,12.10
2019-01-17T12:35:16.221Z,13.30
2019-01-17T12:38:20.327Z,13.27
2019-01-17T12:41:24.448Z,12.03
2019-01-17T12:44:28.573Z,16.33
2019-01-17T12:47:32.685Z,11.30
2019-01-17T12:50:36.772Z,11.70
2019-01-17T12:53:40.895Z,12.30
2019-01-17T12:56:53.853Z,14.07
2019-01-17T12:59:53.643Z,10.57
2019-01-17T13:02:57.739Z,13.73
2019-01-17T13:06:01.915Z,14.47
2019-01-17T13:09:08.309Z,11.50
2019-01-17T13:12:12.519Z,10.07
2019-01-17T13:15:16.613Z,14.77
2019-01-17T13:18:20.750Z,12.50
2019-01-17T13:21:25.237Z,14.57
2019-01-17T13:24:29.432Z,9.60
2019-01-17T13:27:33.595Z,10.43
2019-01-17T13:30:37.943Z,9.90
2019-01-17T13:33:42.121Z,13.10
2019-01-17T13:36:49.397Z,11.63
2019-01-17T13:39:53.561Z,11.33
2019-01-17T13:42:58.920Z,11.23
2019-01-17T13:46:03.088Z,9.90
2019-01-17T13:49:07.216Z,10.27
2019-01-17T13:52:11.308Z,9.03
2019-01-17T13:55:15.964Z,9.17
2019-01-17T13:58:20.134Z,15.97
2019-01-17T14:01:24.558Z,9.63
2019-01-17T14:04:28.663Z,10.17
2019-01-17T14:07:32.782Z,10.80
2019-01-17T14:10:36.888Z,9.23
2019-01-17T14:13:41.094Z,7.77
2019-01-17T14:16:45.181Z,12.07
2019-01-17T14:19:49.473Z,11.37
2019-01-17T14:22:53.641Z,13.67
2019-01-17T14:25:57.851Z,13.73
2019-01-17T14:29:02.002Z,16.87
2019-01-17T14:32:06.253Z,17.30
2019-01-17T14:35:10.427Z,19.77
2019-01-17T14:38:15.116Z,18.57
2019-01-17T14:41:19.208Z,19.87
2019-01-17T14:44:23.378Z,15.53
2019-01-17T14:47:27.533Z,19.63
2019-01-17T14:50:32.447Z,19.90
2019-01-17T14:53:36.545Z,17.73
2019-01-17T14:56:40.658Z,18.17
2019-01-17T14:59:44.912Z,20.03
2019-01-17T15:02:49.062Z,19.87
2019-01-17T15:05:53.245Z,22.67
2019-01-17T15:08:57.443Z,21.30
2019-01-17T15:12:01.623Z,18.93
2019-01-17T15:15:06.439Z,19.77
2019-01-17T15:18:10.648Z,21.03
2019-01-17T15:21:14.857Z,24.47
2019-01-17T15:24:19.065Z,24.23
2019-01-17T15:27:27.268Z,23.47
2019-01-17T15:30:29.054Z,21.37
2019-01-17T15:33:33.469Z,22.77
2019-01-17T15:36:37.822Z,22.60
2019-01-17T15:39:42.037Z,25.50
2019-01-17T15:42:46.386Z,23.10
2019-01-17T15:45:50.860Z,18.40
2019-01-17T15:48:55.047Z,23.57
2019-01-17T15:51:59.288Z,23.03
2019-01-17T15:55:03.500Z,21.70
2019-01-17T15:58:07.637Z,22.10
2019-01-17T16:01:11.907Z,21.47
2019-01-17T16:04:16.160Z,24.17
2019-01-17T16:07:22.251Z,28.47
2019-01-17T16:10:26.567Z,22.90
2019-01-17T16:13:30.773Z,25.80
2019-01-17T16:16:34.986Z,25.13
2019-01-17T16:19:39.282Z,30.97
2019-01-17T16:22:43.538Z,31.23
2019-01-17T16:25:47.842Z,29.93
2019-01-17T16:28:52.135Z,30.40
2019-01-17T16:31:56.318Z,32.67
2019-01-17T16:35:00.521Z,29.90
2019-01-17T16:38:04.705Z,29.40
2019-01-17T16:41:08.884Z,36.77
2019-01-17T16:44:13.207Z,56.07
2019-01-17T16:47:17.767Z,48.03
2019-01-17T16:50:23.950Z,76.67
2019-01-17T16:53:28.489Z,151.30
2019-01-17T16:56:32.744Z,143.77
2019-01-17T16:59:36.963Z,191.60
2019-01-17T17:02:41.540Z,169.63
2019-01-17T17:05:45.896Z,151.73
2019-01-17T17:08:50.247Z,144.20
2019-01-17T17:11:54.511Z,128.83
2019-01-17T17:14:58.961Z,117.80
2019-01-17T17:18:03.161Z,113.00
2019-01-17T17:21:07.392Z,107.70
2019-01-17T17:24:11.584Z,101.50
2019-01-17T17:27:16.459Z,89.67
2019-01-17T17:30:22.865Z,89.10
2019-01-17T17:33:27.107Z,84.10
2019-01-17T17:36:31.296Z,84.20
2019-01-17T17:39:35.482Z,76.47
2019-01-17T17:42:39.748Z,72.47
2019-01-17T17:45:44.265Z,74.03
2019-01-17T17:48:48.597Z,69.60
2019-01-17T17:51:52.944Z,69.93
2019-01-17T17:54:57.244Z,70.23
2019-01-17T17:58:02.314Z,63.37
2019-01-17T18:01:12.237Z,71.33
2019-01-17T18:04:16.860Z,72.33
2019-01-17T18:07:21.865Z,79.47
2019-01-17T18:10:28.972Z,85.83
2019-01-17T18:13:34.491Z,91.97
2019-01-17T18:16:39.886Z,97.50
2019-01-17T18:19:45.163Z,99.77
2019-01-17T18:22:50.699Z,122.17
2019-01-17T18:25:58.742Z,136.70
2019-01-17T18:29:10.826Z,159.33
2019-01-17T18:32:25.095Z,157.13
2019-01-17T18:35:30.246Z,173.03
2019-01-17T18:38:36.208Z,172.67
2019-01-17T18:41:41.668Z,168.53
2019-01-17T18:44:47.779Z,166.60
2019-01-17T18:47:52.601Z,180.13
2019-01-17T18:50:58.397Z,181.83
2019-01-17T18:54:02.990Z,193.80
2019-01-17T18:57:07.366Z,195.53
2019-01-17T19:00:29.967Z,191.50
2019-01-17T19:03:35.203Z,189.67
2019-01-17T19:06:40.288Z,194.93
2019-01-17T19:09:45.730Z,197.53
2019-01-17T19:12:51.262Z,203.00
2019-01-17T19:15:56.145Z,215.30
2019-01-17T19:19:01.676Z,202.23
2019-01-17T19:22:07.216Z,201.97
2019-01-17T19:25:11.849Z,207.53
2019-01-17T19:28:22.328Z,200.53
2019-01-17T19:31:22.738Z,204.90
2019-01-17T19:34:27.515Z,196.33
2019-01-17T19:37:31.886Z,197.47
2019-01-17T19:40:36.354Z,216.23
2019-01-17T19:43:40.614Z,200.70
2019-01-17T19:46:48.124Z,202.93
2019-01-17T19:49:52.339Z,189.80
2019-01-17T19:52:56.688Z,195.97
2019-01-17T19:56:00.953Z,195.93
2019-01-17T19:59:05.547Z,190.67
2019-01-17T20:02:10.014Z,186.53
2019-01-17T20:05:15.549Z,189.37
2019-01-17T20:08:20.063Z,186.33
2019-01-17T20:11:24.311Z,193.43
2019-01-17T20:14:28.766Z,183.77
2019-01-17T20:17:34.823Z,167.20
2019-01-17T20:20:39.325Z,170.67
2019-01-17T20:23:43.565Z,182.83
2019-01-17T20:26:49.518Z,188.00
2019-01-17T20:29:55.387Z,170.30
2019-01-17T20:33:01.468Z,178.77
2019-01-17T20:36:08.731Z,173.70
2019-01-17T20:39:13.053Z,172.07
2019-01-17T20:42:17.350Z,178.60
2019-01-17T20:45:22.211Z,177.83
2019-01-17T20:48:26.442Z,214.37
2019-01-17T20:51:30.783Z,219.50
2019-01-17T20:54:37.530Z,197.07
2019-01-17T20:57:42.581Z,142.43
2019-01-17T21:01:24.037Z,212.33
2019-01-17T21:04:28.265Z,147.53
2019-01-17T21:07:32.508Z,246.40
2019-01-17T21:10:36.724Z,140.63
2019-01-17T21:13:41.338Z,129.57
2019-01-17T21:16:45.517Z,234.17
2019-01-17T21:19:49.869Z,214.67
2019-01-17T21:22:54.046Z,217.73
2019-01-17T21:25:58.337Z,157.63
2019-01-17T21:29:02.549Z,133.37
2019-01-17T21:32:06.781Z,314.23
2019-01-17T21:35:11.367Z,190.47
2019-01-17T21:38:15.574Z,57.47
2019-01-17T21:41:19.763Z,97.07
2019-01-17T21:44:23.971Z,154.33
2019-01-17T21:47:28.367Z,80.43
2019-01-17T21:50:32.528Z,91.93
2019-01-17T21:53:36.708Z,55.77
2019-01-17T21:56:40.917Z,100.47
2019-01-17T21:59:45.302Z,111.90
2019-01-17T22:02:49.635Z,102.37
2019-01-17T22:05:53.848Z,122.17
2019-01-17T22:08:58.072Z,101.47
2019-01-17T22:12:02.280Z,89.57
2019-01-17T22:15:08.922Z,73.03
2019-01-17T22:18:13.087Z,23.10
2019-01-17T22:21:17.229Z,57.77
2019-01-17T22:24:21.429Z,44.03
2019-01-17T22:27:28.370Z,72.70
2019-01-17T22:30:32.460Z,92.70
2019-01-17T22:33:36.602Z,83.10
2019-01-17T22:36:40.759Z,69.80
2019-01-17T22:39:45.162Z,60.10
2019-01-17T22:42:49.330Z,74.50
2019-01-17T22:45:53.545Z,53.80
2019-01-17T22:48:57.716Z,46.67
2019-01-17T22:52:04.109Z,41.53
2019-01-17T22:55:08.914Z,41.27
2019-01-17T22:58:13.169Z,39.80
2019-01-17T23:01:20.244Z,43.33
2019-01-17T23:04:24.638Z,43.73
2019-01-17T23:07:28.796Z,36.87
2019-01-17T23:10:33.292Z,34.60
2019-01-17T23:13:37.455Z,29.33
2019-01-17T23:16:41.585Z,23.63
2019-01-17T23:19:45.776Z,19.83
2019-01-17T23:22:49.902Z,24.03
2019-01-17T23:25:54.145Z,20.90
2019-01-17T23:28:58.308Z,20.73
2019-01-17T23:32:02.693Z,15.13
2019-01-17T23:35:06.930Z,16.30
2019-01-17T23:38:11.046Z,25.00
2019-01-17T23:41:15.161Z,16.53
2019-01-17T23:44:19.328Z,23.13
2019-01-17T23:47:23.389Z,26.73
2019-01-17T23:50:27.557Z,27.10
2019-01-17T23:53:31.780Z,28.47
2019-01-17T23:56:35.907Z,30.93
2019-01-17T23:59:40.048Z,30.93
